Аэропорт: Курск-Восточный . Курск

ICAO: UUOK

METAR:
2019-11-21 09:00:00
UUOK 210900Z 13008MPS 9999 BKN018 M05/M11 Q1045 R12/090065 NOSIG RMK QFE765/1020
METAR:
Информация по данной станции не доступна